Terminal Aerodrome Forecast
Issued by NWS

Home | Current Version | Previous Version | Text Only | Print | Product List | Glossary On
Versions: 1 2 3 4 5 6 7 8 9 10 11 12 13
000
FTUS45 KREV 211720
TAFTVL
TAF
KTVL 211720Z 2118/2218 02005KT P6SM SKC
     FM212300 03007KT P6SM VCTS SCT070CB BKN140
     FM220100 18005KT P6SM SCT080 BKN140=

USA.gov is the U.S. government's official web portal to all federal, state and local government web resources and services.